Time;durP1;ratioP1;P1;durP2;ratioP2;P2;SDS_P1;SDS_P2;PMS_P1;PMS_P2;Temp;Humidity;BMP_temperature;BMP_pressure;BME280_temperature;BME280_humidity;BME280_pressure;Samples;Min_cycle;Max_cycle;Signal;HPM_P1;HPM_P2
2022/07/03 00:00:56;;;;;;;4.68;2.78;;;15.90;42.40;;;;;;5085742;28;20033;-52
2022/07/03 00:03:22;;;;;;;3.55;2.70;;;15.90;42.30;;;;;;5066184;28;20036;-55
2022/07/03 00:05:47;;;;;;;3.50;2.70;;;15.90;42.10;;;;;;5089478;28;20037;-54
2022/07/03 00:08:13;;;;;;;2.85;2.45;;;15.90;44.00;;;;;;5067892;28;20035;-55
2022/07/03 00:10:39;;;;;;;5.00;2.50;;;15.90;42.30;;;;;;5096533;28;20043;-56
2022/07/03 00:13:05;;;;;;;2.63;2.42;;;15.90;42.00;;;;;;5070925;28;20070;-55
2022/07/03 00:15:30;;;;;;;2.67;2.22;;;15.80;42.40;;;;;;5067165;28;20052;-55
2022/07/03 00:17:56;;;;;;;2.40;2.05;;;15.80;42.20;;;;;;5106196;28;20036;-56
2022/07/03 00:20:23;;;;;;;2.28;2.08;;;15.90;42.30;;;;;;5070935;28;20021;-55
2022/07/03 00:22:49;;;;;;;2.30;2.10;;;15.80;43.50;;;;;;5108489;28;20262;-56
2022/07/03 00:25:15;;;;;;;4.32;2.35;;;15.80;43.30;;;;;;5071761;28;20033;-55
2022/07/03 00:27:44;;;;;;;2.53;2.17;;;15.80;47.10;;;;;;5090623;28;20082;-50
2022/07/03 00:30:10;;;;;;;4.18;2.13;;;15.80;44.90;;;;;;5076921;28;20505;-55
2022/07/03 00:32:38;;;;;;;3.78;3.15;;;15.70;43.50;;;;;;5107944;28;20027;-55
2022/07/03 00:35:05;;;;;;;3.72;2.30;;;15.70;44.80;;;;;;5072672;28;20035;-54
2022/07/03 00:37:30;;;;;;;3.75;2.78;;;15.70;44.10;;;;;;5107961;28;20534;-55
2022/07/03 00:39:57;;;;;;;2.50;2.30;;;15.70;44.70;;;;;;5074181;28;20064;-56
2022/07/03 00:42:22;;;;;;;3.83;2.42;;;15.70;44.00;;;;;;5107809;28;20052;-54
2022/07/03 00:44:53;;;;;;;3.65;2.42;;;15.60;45.00;;;;;;5084289;28;20286;-55
2022/07/03 00:47:21;;;;;;;3.33;2.40;;;15.60;45.10;;;;;;5068571;28;20028;-50
2022/07/03 00:49:55;;;;;;;2.30;2.05;;;15.50;46.30;;;;;;5082684;28;20028;-54
2022/07/03 00:52:22;;;;;;;3.08;2.40;;;15.50;45.70;;;;;;5068815;28;20392;-53
2022/07/03 00:54:58;;;;;;;4.38;2.58;;;15.40;48.20;;;;;;5082094;28;20107;-54
2022/07/03 00:57:26;;;;;;;3.25;2.95;;;15.30;48.80;;;;;;5108008;28;20020;-53
2022/07/03 00:59:53;;;;;;;3.75;2.53;;;15.30;50.30;;;;;;5077061;28;20630;-54
2022/07/03 01:02:33;;;;;;;4.70;2.58;;;15.30;49.00;;;;;;5109115;28;20383;-52
2022/07/03 01:05:36;;;;;;;5.10;2.63;;;15.20;50.00;;;;;;5066518;28;20044;-54
2022/07/03 01:08:11;;;;;;;3.78;2.55;;;15.20;51.70;;;;;;5068470;28;20116;-53
2022/07/03 01:10:54;;;;;;;2.30;2.10;;;15.10;52.00;;;;;;5068602;28;20025;-54
2022/07/03 01:13:46;;;;;;;3.58;2.42;;;15.00;50.90;;;;;;5068366;28;20135;-54
2022/07/03 01:16:24;;;;;;;3.13;2.83;;;14.90;58.10;;;;;;5068345;28;20040;-55
2022/07/03 01:18:58;;;;;;;2.80;2.50;;;14.90;55.40;;;;;;5074168;28;20024;-55
2022/07/03 01:21:35;;;;;;;4.07;2.67;;;14.90;54.90;;;;;;5106604;28;20495;-52
2022/07/03 01:24:42;;;;;;;3.42;2.80;;;14.90;55.10;;;;;;5107693;28;20368;-54
2022/07/03 01:27:16;;;;;;;4.93;3.08;;;14.80;58.00;;;;;;5094118;28;20432;-51
2022/07/03 01:29:55;;;;;;;5.15;2.78;;;14.80;55.50;;;;;;5071292;28;20041;-54
2022/07/03 01:32:24;;;;;;;2.83;2.45;;;14.80;56.00;;;;;;5070069;28;20040;-52
2022/07/03 01:34:52;;;;;;;3.78;2.53;;;14.70;55.70;;;;;;5112084;28;20100;-51
2022/07/03 01:37:21;;;;;;;2.95;2.65;;;14.70;57.00;;;;;;5076908;28;20449;-55
2022/07/03 01:39:51;;;;;;;4.15;2.67;;;14.60;57.90;;;;;;5111927;28;20036;-52
2022/07/03 01:42:18;;;;;;;3.08;2.72;;;14.60;57.60;;;;;;5077009;28;20036;-50
2022/07/03 01:44:47;;;;;;;3.38;2.65;;;14.60;61.40;;;;;;5102514;28;20036;-52
2022/07/03 01:47:15;;;;;;;3.28;2.50;;;14.60;58.70;;;;;;5084669;28;20482;-55
2022/07/03 01:49:41;;;;;;;3.47;2.97;;;14.50;57.90;;;;;;5111558;28;20036;-55
2022/07/03 01:52:08;;;;;;;3.42;3.03;;;14.50;58.80;;;;;;5078804;28;20024;-55
2022/07/03 01:54:35;;;;;;;4.25;2.80;;;14.50;60.60;;;;;;5111177;28;20152;-55
2022/07/03 01:57:02;;;;;;;3.15;2.67;;;14.40;60.00;;;;;;5100975;28;20092;-52
2022/07/03 01:59:28;;;;;;;2.95;2.40;;;14.40;59.60;;;;;;5093313;28;20024;-53
2022/07/03 02:02:29;;;;;;;2.67;2.47;;;14.30;61.40;;;;;;5102271;28;20043;-54
2022/07/03 02:05:04;;;;;;;3.08;2.78;;;14.30;62.80;;;;;;5071357;28;20047;-54
2022/07/03 02:07:39;;;;;;;3.05;2.45;;;14.20;61.70;;;;;;5077381;28;20035;-55
2022/07/03 02:10:07;;;;;;;2.92;2.42;;;14.20;67.10;;;;;;5071358;28;20476;-54
2022/07/03 02:12:57;;;;;;;3.97;2.80;;;14.20;63.90;;;;;;5078241;28;20339;-53
2022/07/03 02:15:32;;;;;;;3.15;2.85;;;14.10;67.10;;;;;;5071005;28;20500;-51
2022/07/03 02:18:05;;;;;;;5.13;3.08;;;14.10;65.20;;;;;;5071485;28;20430;-56
2022/07/03 02:20:35;;;;;;;5.13;3.33;;;14.10;65.60;;;;;;5071013;28;20373;-55
2022/07/03 02:23:02;;;;;;;4.53;3.13;;;14.10;67.60;;;;;;5087164;28;20115;-54
2022/07/03 02:25:41;;;;;;;2.97;2.67;;;14.10;66.70;;;;;;5111147;28;20044;-53
2022/07/03 02:28:21;;;;;;;2.80;2.60;;;14.00;66.80;;;;;;5074645;28;20039;-49
2022/07/03 02:30:51;;;;;;;3.25;2.72;;;14.00;65.60;;;;;;5109270;28;20024;-55
2022/07/03 02:33:21;;;;;;;3.30;3.00;;;14.00;71.30;;;;;;5111518;28;20466;-50
2022/07/03 02:35:48;;;;;;;4.05;3.20;;;14.00;68.00;;;;;;5069571;28;20090;-56
2022/07/03 02:38:19;;;;;;;4.28;2.92;;;13.90;67.30;;;;;;5111234;28;20043;-53
2022/07/03 02:41:02;;;;;;;4.38;2.83;;;13.90;68.00;;;;;;5089023;28;20024;-52
2022/07/03 02:43:38;;;;;;;3.83;2.97;;;13.90;74.50;;;;;;5111173;28;20254;-52
2022/07/03 02:46:49;;;;;;;3.90;3.13;;;13.90;71.00;;;;;;5091426;28;20054;-51
2022/07/03 02:49:50;;;;;;;4.63;2.97;;;13.90;70.00;;;;;;5111066;28;20038;-56
2022/07/03 02:52:43;;;;;;;3.38;3.03;;;13.90;75.40;;;;;;5068800;28;20024;-54
2022/07/03 02:55:30;;;;;;;4.45;3.10;;;13.90;74.90;;;;;;5070428;28;20052;-54
2022/07/03 02:58:23;;;;;;;5.45;3.35;;;13.90;72.70;;;;;;5068204;28;20041;-52
2022/07/03 03:01:13;;;;;;;4.20;3.55;;;13.90;77.60;;;;;;5086629;28;20107;-53
2022/07/03 03:03:45;;;;;;;4.00;3.08;;;13.90;74.00;;;;;;5109158;28;20457;-55
2022/07/03 03:06:14;;;;;;;3.55;3.22;;;14.00;73.10;;;;;;5075953;28;20024;-55
2022/07/03 03:09:02;;;;;;;4.35;3.70;;;14.00;71.60;;;;;;5110451;28;20016;-53
2022/07/03 03:11:31;;;;;;;3.95;3.13;;;13.90;76.20;;;;;;5080737;28;20106;-56
2022/07/03 03:13:57;;;;;;;3.20;2.65;;;13.90;73.30;;;;;;5110398;28;20051;-54
2022/07/03 03:16:23;;;;;;;5.28;3.80;;;13.90;71.50;;;;;;5093750;28;20108;-55
2022/07/03 03:18:48;;;;;;;3.17;2.88;;;13.90;73.20;;;;;;5110508;28;20538;-55
2022/07/03 03:21:17;;;;;;;3.38;3.08;;;13.90;75.50;;;;;;5092920;28;20506;-55
2022/07/03 03:23:48;;;;;;;3.88;2.53;;;13.90;75.30;;;;;;5110033;28;20111;-52
2022/07/03 03:26:17;;;;;;;3.78;3.22;;;14.00;74.40;;;;;;5076688;28;20035;-52
2022/07/03 03:28:43;;;;;;;5.57;3.40;;;14.00;74.10;;;;;;5101595;28;20060;-52
2022/07/03 03:31:09;;;;;;;4.22;3.45;;;14.00;74.90;;;;;;5107231;28;20100;-50
2022/07/03 03:33:48;;;;;;;4.53;3.88;;;14.00;76.10;;;;;;5110000;28;20016;-54
2022/07/03 03:36:17;;;;;;;4.72;3.30;;;14.10;78.80;;;;;;5091985;28;20402;-52
2022/07/03 03:38:43;;;;;;;6.57;3.53;;;14.20;74.60;;;;;;5110031;28;20020;-56
2022/07/03 03:41:09;;;;;;;4.22;3.20;;;14.40;78.00;;;;;;5091504;28;20500;-53
2022/07/03 03:43:35;;;;;;;4.47;3.45;;;14.60;73.10;;;;;;5109737;28;20462;-53
2022/07/03 03:46:01;;;;;;;5.15;3.22;;;15.10;70.40;;;;;;5090192;28;20055;-55
2022/07/03 03:48:28;;;;;;;3.05;2.70;;;16.00;65.20;;;;;;5108924;28;20106;-56
2022/07/03 03:50:55;;;;;;;3.95;2.90;;;16.80;60.10;;;;;;5094203;28;20042;-51
2022/07/03 03:53:22;;;;;;;4.10;3.15;;;17.60;55.20;;;;;;5110099;28;20038;-56
2022/07/03 03:56:05;;;;;;;4.18;3.10;;;18.40;50.30;;;;;;5093662;28;20024;-55
2022/07/03 03:58:34;;;;;;;5.15;3.30;;;19.10;46.00;;;;;;5089593;28;20028;-55
2022/07/03 04:01:02;;;;;;;2.95;2.50;;;19.80;45.60;;;;;;5099698;28;20019;-52
2022/07/03 04:03:28;;;;;;;4.63;2.53;;;20.50;42.90;;;;;;5109838;28;20039;-50
2022/07/03 04:05:54;;;;;;;3.72;2.90;;;21.10;40.00;;;;;;5094217;28;20106;-62
2022/07/03 04:08:21;;;;;;;4.60;2.72;;;21.50;36.70;;;;;;5109916;28;20110;-62
2022/07/03 04:10:48;;;;;;;3.53;3.22;;;21.90;35.00;;;;;;5093328;28;20035;-61
2022/07/03 04:13:14;;;;;;;3.45;3.05;;;22.40;32.40;;;;;;5109792;28;20031;-62
2022/07/03 04:15:39;;;;;;;4.93;3.20;;;22.80;30.30;;;;;;5092256;28;20058;-61
2022/07/03 04:18:05;;;;;;;4.15;2.90;;;23.20;25.20;;;;;;5109347;28;20050;-62
2022/07/03 04:20:31;;;;;;;3.25;2.83;;;23.50;22.50;;;;;;5091031;28;20031;-61
2022/07/03 04:22:57;;;;;;;4.43;2.90;;;23.90;25.50;;;;;;5109713;28;20028;-61
2022/07/03 04:25:23;;;;;;;3.58;2.38;;;24.40;24.20;;;;;;5089758;28;20075;-61
2022/07/03 04:27:49;;;;;;;2.60;2.40;;;24.70;22.70;;;;;;5091612;28;20396;-60
2022/07/03 04:30:14;;;;;;;2.97;2.70;;;25.10;20.60;;;;;;5107440;28;20072;-61
2022/07/03 04:32:40;;;;;;;3.58;2.35;;;25.40;18.70;;;;;;5109377;28;20101;-61
2022/07/03 04:35:06;;;;;;;3.78;2.50;;;25.70;17.00;;;;;;5087543;28;20029;-56
2022/07/03 04:37:32;;;;;;;2.55;2.35;;;25.90;17.50;;;;;;5068906;28;20110;-61
2022/07/03 04:39:58;;;;;;;2.90;2.50;;;26.30;16.30;;;;;;5082344;28;20208;-61
2022/07/03 04:42:23;;;;;;;3.85;2.55;;;26.60;14.80;;;;;;5108010;28;20020;-61
2022/07/03 04:44:49;;;;;;;2.55;2.35;;;26.50;13.40;;;;;;5088380;28;20716;-61
2022/07/03 04:47:15;;;;;;;3.08;2.42;;;26.90;13.20;;;;;;5108401;28;20035;-62
2022/07/03 04:49:41;;;;;;;3.15;2.55;;;27.00;9.70;;;;;;5096639;28;20031;-61
2022/07/03 04:52:08;;;;;;;2.72;2.53;;;27.10;10.60;;;;;;5089379;28;20055;-62
2022/07/03 04:54:33;;;;;;;2.38;2.17;;;27.30;9.80;;;;;;5106443;28;20112;-60
2022/07/03 04:56:59;;;;;;;2.80;2.60;;;27.20;10.40;;;;;;5089400;28;20519;-58
2022/07/03 04:59:24;;;;;;;2.85;2.60;;;27.40;9.50;;;;;;5103367;28;20503;-59
2022/07/03 05:01:50;;;;;;;2.50;2.30;;;27.90;7.50;;;;;;5084699;28;20412;-59
2022/07/03 05:04:16;;;;;;;2.50;2.30;;;27.90;8.80;;;;;;5096134;28;20436;-60
2022/07/03 05:06:42;;;;;;;4.55;3.10;;;28.30;8.20;;;;;;5113325;27;20019;-59
2022/07/03 05:09:08;;;;;;;4.15;2.47;;;28.40;6.30;;;;;;5095750;28;20023;-59
2022/07/03 05:11:33;;;;;;;2.92;2.10;;;28.50;7.10;;;;;;5079546;28;20096;-58
2022/07/03 05:13:59;;;;;;;3.20;2.10;;;29.20;6.60;;;;;;5077886;28;20673;-59
2022/07/03 05:16:24;;;;;;;2.90;2.45;;;29.70;4.40;;;;;;5085711;28;20028;-59
2022/07/03 05:18:50;;;;;;;2.60;2.35;;;29.90;1.50;;;;;;5076978;28;20646;-59
2022/07/03 05:21:15;;;;;;;2.67;1.90;;;29.90;4.30;;;;;;5073223;28;20064;-59
2022/07/03 05:23:41;;;;;;;2.60;2.15;;;30.30;3.90;;;;;;5078270;28;20045;-59
2022/07/03 05:26:06;;;;;;;2.78;2.22;;;31.20;3.10;;;;;;5084160;28;20024;-60
2022/07/03 05:28:32;;;;;;;3.15;2.25;;;31.60;1.80;;;;;;5081331;28;20056;-58
2022/07/03 05:30:57;;;;;;;2.33;2.13;;;31.30;1.00;;;;;;5079670;28;20036;-59
2022/07/03 05:33:23;;;;;;;3.08;2.22;;;31.60;1.40;;;;;;5076327;28;20040;-59
2022/07/03 05:35:48;;;;;;;1.95;1.80;;;32.10;1.40;;;;;;5080782;28;20381;-59
2022/07/03 05:39:31;;;;;;;2.22;2.00;;;32.50;1.00;;;;;;5075634;28;20048;-59
2022/07/03 05:41:00;;;;;;;3.10;2.33;;;32.20;1.00;;;;;;5076241;28;20559;-59
2022/07/03 05:43:26;;;;;;;3.72;2.38;;;32.50;1.00;;;;;;5071440;28;20123;-59
2022/07/03 05:45:51;;;;;;;1.98;1.88;;;32.50;1.00;;;;;;5075524;28;20037;-59
2022/07/03 05:48:16;;;;;;;3.33;2.35;;;33.10;1.00;;;;;;5070379;28;20123;-59
2022/07/03 05:50:42;;;;;;;2.72;2.45;;;33.20;1.00;;;;;;5090816;28;20836;-59
2022/07/03 05:53:07;;;;;;;2.20;2.00;;;33.30;1.00;;;;;;5070712;28;20043;-59
2022/07/03 05:55:33;;;;;;;2.08;1.90;;;32.80;1.00;;;;;;5101112;28;20126;-59
2022/07/03 05:57:58;;;;;;;2.83;2.03;;;32.90;1.00;;;;;;5071227;28;20037;-59
2022/07/03 06:00:24;;;;;;;2.10;1.77;;;33.40;1.00;;;;;;5072513;28;20040;-59
2022/07/03 06:02:49;;;;;;;1.67;1.58;;;34.20;1.00;;;;;;5070938;28;20047;-59
2022/07/03 06:05:15;;;;;;;1.90;1.80;;;35.00;1.00;;;;;;5097907;28;20031;-60
2022/07/03 06:07:40;;;;;;;2.00;1.80;;;35.20;1.00;;;;;;5073611;28;20035;-60
2022/07/03 06:10:06;;;;;;;1.90;1.80;;;35.60;1.00;;;;;;5094470;28;20035;-59
2022/07/03 06:12:32;;;;;;;1.70;1.60;;;35.40;1.00;;;;;;5082283;28;20028;-59
2022/07/03 06:14:57;;;;;;;2.47;1.80;;;35.50;1.00;;;;;;5094278;28;20669;-59
2022/07/03 06:17:23;;;;;;;2.63;1.50;;;35.50;1.00;;;;;;5072873;28;20027;-59
2022/07/03 06:19:48;;;;;;;1.67;1.58;;;35.90;1.00;;;;;;5090876;28;20023;-59
2022/07/03 06:22:14;;;;;;;4.38;2.05;;;35.90;1.00;;;;;;5072825;28;20131;-59
2022/07/03 06:24:39;;;;;;;2.65;1.73;;;36.40;1.00;;;;;;5085792;28;20028;-59
2022/07/03 06:27:05;;;;;;;3.47;1.80;;;36.50;1.00;;;;;;5082339;28;20043;-59
2022/07/03 06:29:30;;;;;;;2.15;1.90;;;36.20;1.00;;;;;;5068176;28;20519;-59
2022/07/03 06:31:56;;;;;;;2.17;1.48;;;36.00;1.00;;;;;;5080420;28;20023;-62
2022/07/03 06:34:21;;;;;;;1.58;1.42;;;36.70;1.00;;;;;;5080881;28;20037;-62
2022/07/03 06:36:47;;;;;;;2.25;1.55;;;37.50;1.00;;;;;;5097363;28;20024;-62
2022/07/03 06:39:12;;;;;;;2.13;1.85;;;37.90;1.00;;;;;;5074424;28;20032;-61
2022/07/03 06:41:38;;;;;;;1.73;1.50;;;37.80;1.00;;;;;;5109438;28;20057;-61
2022/07/03 06:44:03;;;;;;;1.58;1.40;;;37.40;1.00;;;;;;5073583;28;20054;-62
2022/07/03 06:46:29;;;;;;;3.13;1.60;;;38.00;1.00;;;;;;5089861;28;20558;-62
2022/07/03 06:48:54;;;;;;;1.80;1.60;;;37.90;1.00;;;;;;5078587;28;20075;-62
2022/07/03 06:51:20;;;;;;;1.98;1.55;;;38.20;1.00;;;;;;5109840;28;20403;-62
2022/07/03 06:53:45;;;;;;;1.48;1.38;;;37.50;1.00;;;;;;5075499;28;20024;-62
2022/07/03 06:56:11;;;;;;;1.65;1.30;;;37.80;1.00;;;;;;5109832;28;20043;-62
2022/07/03 06:58:36;;;;;;;1.60;1.50;;;38.20;1.00;;;;;;5076845;28;20028;-62
2022/07/03 07:01:02;;;;;;;2.72;1.30;;;39.00;1.00;;;;;;5101820;28;20555;-62
2022/07/03 07:03:27;;;;;;;2.45;1.60;;;39.80;1.00;;;;;;5100245;28;20033;-62
2022/07/03 07:05:53;;;;;;;1.33;1.23;;;40.50;1.00;;;;;;5110510;28;20023;-62
2022/07/03 07:08:18;;;;;;;3.55;1.55;;;40.20;1.00;;;;;;5099024;28;20031;-62
2022/07/03 07:10:44;;;;;;;1.63;1.52;;;40.10;1.00;;;;;;5090898;28;20032;-61
2022/07/03 07:13:09;;;;;;;1.73;1.30;;;39.80;1.00;;;;;;5100299;28;20077;-62
2022/07/03 07:15:34;;;;;;;2.35;1.20;;;39.40;1.00;;;;;;5109924;28;20070;-62
2022/07/03 07:18:00;;;;;;;4.80;1.23;;;39.50;1.00;;;;;;5101769;28;20104;-62
2022/07/03 07:20:25;;;;;;;1.65;1.10;;;39.80;1.00;;;;;;5106880;28;20034;-62
2022/07/03 07:22:51;;;;;;;1.20;1.10;;;39.60;1.00;;;;;;5093108;28;20038;-62
2022/07/03 07:25:16;;;;;;;2.05;1.13;;;39.70;1.00;;;;;;5097555;28;20118;-62
2022/07/03 07:27:42;;;;;;;2.58;1.20;;;39.20;1.00;;;;;;5094904;28;20027;-61
2022/07/03 07:30:08;;;;;;;1.30;1.20;;;38.40;1.00;;;;;;5110390;28;20047;-62
2022/07/03 07:32:33;;;;;;;1.63;1.30;;;38.80;1.00;;;;;;5092119;28;20069;-62
2022/07/03 07:34:59;;;;;;;1.83;1.10;;;39.30;1.00;;;;;;5110576;28;20052;-62
2022/07/03 07:37:24;;;;;;;2.15;1.13;;;39.50;1.00;;;;;;5090554;28;20392;-62
2022/07/03 07:39:50;;;;;;;4.28;1.00;;;38.50;1.00;;;;;;5110427;28;20035;-61
2022/07/03 07:42:16;;;;;;;1.45;1.10;;;38.50;1.00;;;;;;5089089;28;20584;-62
2022/07/03 07:44:42;;;;;;;1.00;0.90;;;38.60;1.00;;;;;;5110028;28;20023;-59
2022/07/03 07:47:07;;;;;;;1.42;1.10;;;38.60;1.00;;;;;;5088172;28;20480;-60
2022/07/03 07:49:33;;;;;;;2.42;1.20;;;38.60;1.00;;;;;;5110148;28;20020;-60
2022/07/03 07:51:58;;;;;;;1.25;1.15;;;37.70;1.00;;;;;;5090174;28;20374;-61
2022/07/03 07:54:24;;;;;;;1.02;0.88;;;38.00;1.00;;;;;;5069083;28;20024;-61
2022/07/03 07:56:49;;;;;;;1.48;1.25;;;38.40;1.00;;;;;;5108637;28;20038;-61
2022/07/03 07:59:15;;;;;;;1.25;1.15;;;38.20;1.00;;;;;;5070447;28;20528;-60
2022/07/03 08:07:09;;;;;;;1.23;1.13;;;37.70;1.00;;;;;;5089421;28;20027;-61
2022/07/03 08:09:34;;;;;;;1.33;1.05;;;37.60;1.00;;;;;;5107036;28;20035;-61
2022/07/03 08:12:00;;;;;;;1.80;1.40;;;37.80;1.00;;;;;;5109831;28;20031;-61
2022/07/03 08:14:25;;;;;;;2.10;1.13;;;37.80;1.00;;;;;;5091117;28;20034;-61
2022/07/03 08:16:51;;;;;;;1.23;1.13;;;37.80;1.00;;;;;;5109539;28;20705;-61
2022/07/03 08:19:16;;;;;;;1.65;1.23;;;37.60;1.00;;;;;;5090376;28;20059;-61
2022/07/03 08:21:42;;;;;;;1.00;0.90;;;37.80;1.00;;;;;;5109538;28;20095;-61
2022/07/03 08:24:08;;;;;;;5.07;1.25;;;38.20;1.00;;;;;;5088906;28;20128;-61
2022/07/03 08:26:33;;;;;;;1.35;1.20;;;38.30;1.00;;;;;;5101832;28;20035;-61
2022/07/03 08:28:58;;;;;;;2.25;1.00;;;38.60;1.00;;;;;;5096161;28;20467;-58
2022/07/03 08:31:24;;;;;;;1.08;0.90;;;38.40;1.00;;;;;;5089401;28;20040;-60
2022/07/03 08:33:50;;;;;;;1.58;1.05;;;37.70;1.00;;;;;;5108345;28;20036;-62
2022/07/03 08:36:15;;;;;;;1.13;0.90;;;37.30;1.00;;;;;;5068646;28;20025;-65
2022/07/03 08:38:41;;;;;;;1.83;1.23;;;37.50;1.00;;;;;;5107565;28;20039;-63
2022/07/03 08:41:07;;;;;;;3.17;1.40;;;37.40;1.00;;;;;;5069846;28;20086;-64
2022/07/03 08:43:33;;;;;;;1.38;1.27;;;36.90;1.00;;;;;;5108055;28;20028;-62
2022/07/03 08:46:00;;;;;;;1.33;1.10;;;35.90;1.00;;;;;;5070990;28;20116;-63
2022/07/03 08:48:28;;;;;;;1.40;1.20;;;35.70;1.00;;;;;;5108066;28;20032;-63
2022/07/03 08:50:53;;;;;;;1.38;1.23;;;34.60;1.00;;;;;;5071195;28;20040;-63
2022/07/03 08:53:19;;;;;;;1.40;1.30;;;34.20;1.00;;;;;;5108061;28;20042;-63
2022/07/03 08:55:47;;;;;;;2.53;1.63;;;33.80;1.00;;;;;;5072830;28;20029;-63
2022/07/03 08:58:19;;;;;;;2.10;1.20;;;33.50;1.00;;;;;;5108504;28;20399;-62
2022/07/03 09:00:44;;;;;;;2.25;1.10;;;32.70;1.00;;;;;;5083020;28;20047;-61
2022/07/03 09:03:12;;;;;;;2.00;1.20;;;32.30;1.00;;;;;;5089174;28;20032;-61
2022/07/03 09:05:38;;;;;;;1.58;1.33;;;31.80;1.00;;;;;;5078944;28;20052;-61
2022/07/03 09:08:07;;;;;;;2.47;1.20;;;31.50;1.00;;;;;;5107986;28;20032;-61
2022/07/03 09:10:33;;;;;;;1.55;1.30;;;31.40;1.00;;;;;;5073833;28;20446;-61
2022/07/03 09:12:58;;;;;;;4.80;1.30;;;31.60;1.00;;;;;;5105327;28;20119;-61
2022/07/03 09:15:24;;;;;;;2.58;1.25;;;31.10;1.00;;;;;;5080281;28;20119;-62
2022/07/03 09:18:03;;;;;;;1.30;1.20;;;31.10;1.00;;;;;;5085236;28;20395;-61
2022/07/03 09:20:40;;;;;;;2.70;1.20;;;31.00;1.00;;;;;;5086345;28;20036;-62
2022/07/03 09:23:10;;;;;;;2.90;1.45;;;31.10;1.00;;;;;;5068814;28;20032;-62
2022/07/03 09:25:54;;;;;;;1.92;1.65;;;31.30;1.00;;;;;;5081141;28;20029;-62
2022/07/03 09:28:21;;;;;;;2.33;1.67;;;31.00;1.00;;;;;;5074481;28;20507;-62
2022/07/03 09:30:57;;;;;;;2.03;1.23;;;30.90;1.00;;;;;;5065981;28;20103;-62
2022/07/03 09:33:22;;;;;;;2.50;1.30;;;31.10;1.00;;;;;;5086537;28;20195;-61
2022/07/03 09:35:53;;;;;;;2.65;1.40;;;31.20;1.00;;;;;;5065812;28;20476;-62
2022/07/03 09:38:19;;;;;;;1.52;1.42;;;30.90;1.00;;;;;;5069170;28;20027;-62
2022/07/03 09:40:52;;;;;;;3.35;1.40;;;30.70;1.00;;;;;;5076846;28;20020;-62
2022/07/03 09:43:25;;;;;;;3.60;1.52;;;31.00;1.00;;;;;;5071896;28;20600;-62
2022/07/03 09:46:02;;;;;;;1.70;1.60;;;31.10;1.00;;;;;;5070732;28;20094;-62
2022/07/03 09:48:31;;;;;;;1.58;1.40;;;31.00;1.00;;;;;;5070222;28;20032;-62
2022/07/03 09:51:15;;;;;;;2.42;1.42;;;30.70;1.00;;;;;;5071853;28;20396;-62
2022/07/03 09:54:01;;;;;;;1.75;1.42;;;30.70;1.00;;;;;;5069010;28;20032;-62
2022/07/03 09:56:28;;;;;;;1.55;1.40;;;30.40;1.00;;;;;;5069297;28;20032;-62
2022/07/03 09:59:05;;;;;;;1.17;1.08;;;30.40;1.00;;;;;;5081884;28;20442;-60
2022/07/03 10:01:31;;;;;;;2.15;1.67;;;30.70;1.00;;;;;;5061620;28;20507;-61
2022/07/03 10:04:18;;;;;;;1.80;1.15;;;30.60;1.00;;;;;;5079313;28;20147;-61
2022/07/03 10:06:47;;;;;;;2.55;1.45;;;30.80;1.00;;;;;;5069278;28;20024;-49
2022/07/03 10:09:16;;;;;;;1.77;1.60;;;30.80;1.00;;;;;;5081276;28;20038;-48
2022/07/03 10:11:43;;;;;;;2.03;1.50;;;30.60;1.00;;;;;;5111683;28;20032;-50
2022/07/03 10:14:13;;;;;;;4.25;1.60;;;30.20;1.00;;;;;;5088003;28;20392;-51
2022/07/03 10:16:39;;;;;;;3.30;1.40;;;30.10;1.00;;;;;;5085321;28;20162;-48
2022/07/03 10:19:06;;;;;;;2.95;1.38;;;29.90;1.00;;;;;;5109724;28;20510;-50
2022/07/03 10:21:35;;;;;;;4.07;1.67;;;29.70;1.00;;;;;;5100672;28;20036;-47
2022/07/03 10:24:01;;;;;;;2.53;2.05;;;29.10;1.00;;;;;;5091123;28;20492;-50
2022/07/03 10:26:27;;;;;;;2.17;1.60;;;28.80;1.00;;;;;;5092694;28;20030;-50
2022/07/03 10:28:54;;;;;;;2.45;1.40;;;29.00;1.00;;;;;;5101075;28;20439;-49
2022/07/03 10:31:20;;;;;;;2.00;1.60;;;29.20;1.00;;;;;;5109138;28;20024;-47
2022/07/03 10:33:46;;;;;;;2.97;1.75;;;29.20;1.00;;;;;;5091712;28;20533;-47
2022/07/03 10:36:13;;;;;;;1.90;1.50;;;29.10;1.00;;;;;;5108691;28;20495;-51
2022/07/03 10:38:45;;;;;;;4.40;2.15;;;28.90;1.00;;;;;;5091365;28;20031;-47
2022/07/03 10:47:40;;;;;;;2.38;1.77;;;27.90;1.00;;;;;;5062006;28;19931;-47
2022/07/03 10:50:14;;;;;;;2.33;1.88;;;28.10;1.00;;;;;;5110956;28;20032;-50
2022/07/03 10:52:40;;;;;;;1.70;1.60;;;28.30;1.00;;;;;;5067318;28;20119;-51
2022/07/03 10:55:07;;;;;;;2.35;1.60;;;28.50;1.00;;;;;;5073059;28;20078;-48
2022/07/03 10:57:34;;;;;;;2.97;1.58;;;28.20;1.00;;;;;;5083062;28;20036;-49
2022/07/03 11:00:02;;;;;;;3.15;1.50;;;28.30;1.00;;;;;;5087828;28;20046;-47
2022/07/03 11:02:31;;;;;;;2.22;1.38;;;28.30;1.00;;;;;;5069845;28;20031;-51
2022/07/03 11:04:57;;;;;;;2.25;1.60;;;28.30;1.00;;;;;;5084388;28;20110;-49
2022/07/03 11:07:25;;;;;;;1.30;1.20;;;28.30;1.00;;;;;;5069883;28;20457;-48
2022/07/03 11:10:14;;;;;;;2.05;1.58;;;28.40;1.00;;;;;;5065910;28;20229;-49
2022/07/03 11:12:59;;;;;;;1.77;1.60;;;28.40;1.00;;;;;;5067957;28;20023;-49
2022/07/03 11:15:33;;;;;;;3.00;1.13;;;28.40;1.00;;;;;;5071620;27;20054;-50
2022/07/03 11:18:07;;;;;;;2.40;1.40;;;28.40;1.00;;;;;;5085285;28;20440;-47
2022/07/03 11:20:42;;;;;;;2.50;1.63;;;28.40;1.00;;;;;;5071578;28;20650;-48
2022/07/03 11:23:18;;;;;;;2.30;1.77;;;28.10;1.00;;;;;;5080901;28;20368;-52
2022/07/03 11:25:48;;;;;;;1.88;1.67;;;28.00;1.00;;;;;;5074088;28;20043;-50
2022/07/03 11:28:36;;;;;;;1.42;1.33;;;27.90;1.00;;;;;;5071263;28;20059;-52
2022/07/03 11:31:11;;;;;;;1.98;1.60;;;27.90;1.00;;;;;;5066964;28;20044;-54
2022/07/03 11:33:42;;;;;;;1.52;1.38;;;28.00;1.00;;;;;;5087727;28;20028;-53
2022/07/03 11:36:17;;;;;;;3.15;1.95;;;27.90;1.00;;;;;;5074712;28;20031;-51
2022/07/03 11:39:09;;;;;;;1.85;1.60;;;27.80;1.00;;;;;;5079947;28;20366;-50
2022/07/03 11:41:34;;;;;;;1.92;1.75;;;27.80;1.00;;;;;;5059476;28;20038;-48
2022/07/03 11:44:03;;;;;;;2.25;1.60;;;27.70;1.00;;;;;;5075975;28;20028;-47
2022/07/03 11:46:34;;;;;;;2.10;1.60;;;27.50;1.00;;;;;;5092597;28;20032;-51
2022/07/03 11:49:16;;;;;;;2.35;1.67;;;27.60;1.00;;;;;;5077865;28;20058;-52
2022/07/03 11:52:03;;;;;;;2.17;1.85;;;27.40;1.00;;;;;;5066937;28;20032;-51
2022/07/03 11:54:48;;;;;;;1.58;1.48;;;27.50;1.00;;;;;;5071930;28;20123;-49
2022/07/03 11:57:14;;;;;;;1.80;1.60;;;27.60;1.00;;;;;;5080058;28;20038;-50
2022/07/03 11:59:39;;;;;;;1.92;1.45;;;27.80;1.00;;;;;;5069834;28;20411;-52
2022/07/03 12:02:05;;;;;;;2.35;1.67;;;27.80;1.00;;;;;;5080356;28;20081;-56
2022/07/03 12:04:31;;;;;;;1.60;1.40;;;27.90;1.00;;;;;;5067048;28;20452;-52
2022/07/03 12:06:59;;;;;;;1.73;1.60;;;27.60;1.00;;;;;;5083043;28;20561;-53
2022/07/03 12:09:27;;;;;;;2.13;1.73;;;27.60;1.00;;;;;;5079046;28;20451;-50
2022/07/03 12:11:57;;;;;;;2.40;1.60;;;27.60;1.00;;;;;;5082310;28;20032;-54
2022/07/03 12:14:48;;;;;;;2.25;1.73;;;27.50;1.00;;;;;;5065797;28;20025;-52
2022/07/03 12:17:24;;;;;;;1.73;1.40;;;27.50;1.00;;;;;;5068584;28;20025;-48
2022/07/03 12:19:58;;;;;;;2.10;1.42;;;27.60;1.00;;;;;;5069897;28;20059;-51
2022/07/03 12:22:29;;;;;;;2.28;1.92;;;27.60;1.00;;;;;;5065233;28;20492;-47
2022/07/03 12:25:06;;;;;;;2.60;1.60;;;27.60;1.00;;;;;;5082353;28;20036;-51
2022/07/03 12:27:34;;;;;;;1.70;1.60;;;27.60;1.00;;;;;;5084061;28;20062;-48
2022/07/03 12:30:00;;;;;;;2.40;1.65;;;27.50;1.00;;;;;;5078223;28;20057;-53
2022/07/03 12:32:26;;;;;;;2.15;1.83;;;27.50;1.00;;;;;;5090139;28;20119;-50
2022/07/03 12:34:51;;;;;;;2.88;1.50;;;27.30;1.00;;;;;;5077628;28;20025;-49
2022/07/03 12:37:30;;;;;;;2.20;1.42;;;27.30;1.00;;;;;;5090530;28;20424;-51
2022/07/03 12:39:57;;;;;;;2.35;1.40;;;27.40;1.00;;;;;;5076395;28;20043;-51
2022/07/03 12:42:22;;;;;;;4.03;1.50;;;27.50;1.00;;;;;;5087330;28;20039;-51
2022/07/03 12:44:59;;;;;;;2.58;1.60;;;27.60;1.00;;;;;;5082100;28;20031;-54
2022/07/03 12:47:27;;;;;;;2.05;1.55;;;27.70;1.00;;;;;;5066284;28;20496;-53
2022/07/03 12:49:57;;;;;;;1.90;1.75;;;27.80;1.00;;;;;;5076528;28;20029;-49
2022/07/03 12:52:22;;;;;;;1.50;1.40;;;27.80;1.00;;;;;;5082682;28;20024;-52
2022/07/03 12:54:48;;;;;;;1.52;1.30;;;27.80;1.00;;;;;;5084470;28;20031;-48
2022/07/03 13:00:19;;;;;;;1.60;1.50;;;28.10;1.00;;;;;;5069471;28;20063;-54
2022/07/03 13:02:49;;;;;;;1.92;1.30;;;28.20;1.00;;;;;;5081680;28;20039;-55
2022/07/03 13:05:18;;;;;;;2.70;1.30;;;28.20;1.00;;;;;;5076085;28;20079;-49
2022/07/03 13:07:46;;;;;;;1.50;1.40;;;28.20;1.00;;;;;;5079802;28;20037;-54
2022/07/03 13:10:15;;;;;;;1.73;1.45;;;28.20;1.00;;;;;;5090645;28;20480;-51
2022/07/03 13:12:48;;;;;;;1.20;1.10;;;28.20;1.00;;;;;;5077555;28;20033;-52
2022/07/03 13:15:16;;;;;;;1.90;1.55;;;28.40;1.00;;;;;;5085304;28;20044;-53
2022/07/03 13:17:54;;;;;;;1.40;1.20;;;28.50;1.00;;;;;;5073584;28;20115;-51
2022/07/03 13:20:27;;;;;;;1.75;1.40;;;28.80;1.00;;;;;;5082181;28;20032;-52